Time;durP1;ratioP1;P1;durP2;ratioP2;P2;SDS_P1;SDS_P2;PMS_P1;PMS_P2;Temp;Humidity;BMP_temperature;BMP_pressure;BME280_temperature;BME280_humidity;BME280_pressure;Samples;Min_cycle;Max_cycle;Signal;HPM_P1;HPM_P2
2024/04/04 00:00:01;;;;;;;8.07;1.73;;;12.20;99.90;;;;;;5088656;28;20043;-80
2024/04/04 00:02:26;;;;;;;10.77;1.80;;;12.30;99.90;;;;;;5089506;28;20626;-80
2024/04/04 00:05:02;;;;;;;7.13;1.80;;;12.20;99.90;;;;;;5108820;27;20031;-81
2024/04/04 00:07:28;;;;;;;9.57;2.05;;;12.20;99.90;;;;;;5107944;27;20027;-81
2024/04/04 00:09:54;;;;;;;12.30;2.50;;;12.30;99.90;;;;;;5107450;27;20023;-81
2024/04/04 00:12:20;;;;;;;6.25;1.80;;;12.30;99.90;;;;;;5106971;27;20026;-81
2024/04/04 00:14:47;;;;;;;8.98;2.58;;;12.30;99.90;;;;;;5109027;27;20026;-80
2024/04/04 00:17:13;;;;;;;8.15;2.38;;;12.40;99.90;;;;;;5108801;27;20038;-81
2024/04/04 00:19:38;;;;;;;9.90;2.40;;;12.40;99.90;;;;;;5107797;27;20028;-80
2024/04/04 00:22:05;;;;;;;8.70;2.30;;;12.40;99.90;;;;;;5107023;28;20489;-81
2024/04/04 00:24:30;;;;;;;6.38;2.72;;;12.40;99.90;;;;;;5089256;28;20031;-81
2024/04/04 00:26:56;;;;;;;5.10;1.58;;;12.40;99.90;;;;;;5107024;27;20024;-81
2024/04/04 00:29:22;;;;;;;6.90;1.92;;;12.40;99.90;;;;;;5089947;28;21362;-81
2024/04/04 00:31:47;;;;;;;8.38;1.33;;;12.40;99.90;;;;;;5109472;27;20032;-81
2024/04/04 00:34:13;;;;;;;8.68;1.90;;;12.40;99.90;;;;;;5109011;27;20501;-81
2024/04/04 00:36:39;;;;;;;7.03;2.22;;;12.50;99.90;;;;;;5089743;28;20020;-81
2024/04/04 00:39:04;;;;;;;9.88;1.60;;;12.40;99.90;;;;;;5108718;27;20054;-81
2024/04/04 00:41:30;;;;;;;5.60;1.30;;;12.50;99.90;;;;;;5087139;28;20069;-81
2024/04/04 00:43:56;;;;;;;6.35;1.58;;;12.50;99.90;;;;;;5089471;28;20586;-81
2024/04/04 00:46:23;;;;;;;5.78;1.85;;;12.50;99.90;;;;;;5107099;28;20034;-80
2024/04/04 00:48:49;;;;;;;7.38;2.03;;;12.40;99.90;;;;;;5089303;28;20081;-80
2024/04/04 00:51:15;;;;;;;11.13;1.77;;;12.40;99.90;;;;;;5088362;28;20607;-82
2024/04/04 00:53:41;;;;;;;8.00;1.40;;;12.30;99.90;;;;;;5107951;27;20036;-81
2024/04/04 00:56:07;;;;;;;8.60;1.55;;;12.30;99.90;;;;;;5108992;27;20016;-81
2024/04/04 00:58:34;;;;;;;9.40;1.83;;;12.40;99.90;;;;;;5108734;27;20042;-80
2024/04/04 01:01:00;;;;;;;13.43;2.10;;;12.40;99.90;;;;;;5106398;27;20035;-81
2024/04/04 01:03:26;;;;;;;11.30;1.63;;;12.40;99.90;;;;;;5087018;28;20035;-81
2024/04/04 01:05:52;;;;;;;6.63;1.90;;;12.40;99.90;;;;;;5106682;27;20016;-80
2024/04/04 01:08:18;;;;;;;4.85;1.80;;;12.50;99.90;;;;;;5088834;28;20500;-81
2024/04/04 01:10:44;;;;;;;9.90;1.95;;;12.40;99.90;;;;;;5107657;27;20012;-81
2024/04/04 01:13:10;;;;;;;5.43;1.70;;;12.40;99.90;;;;;;5088887;27;20072;-81
2024/04/04 01:15:36;;;;;;;4.78;1.58;;;12.40;99.90;;;;;;5107792;27;20471;-80
2024/04/04 01:18:01;;;;;;;7.13;2.40;;;12.40;99.90;;;;;;5106692;27;20012;-80
2024/04/04 01:20:27;;;;;;;11.32;1.85;;;12.40;99.90;;;;;;5087205;28;20465;-77
2024/04/04 01:22:53;;;;;;;7.78;1.58;;;12.40;99.90;;;;;;5107095;27;20023;-77
2024/04/04 01:25:18;;;;;;;6.32;1.85;;;12.40;99.90;;;;;;5106628;28;20054;-77
2024/04/04 01:27:48;;;;;;;6.22;1.50;;;12.40;99.90;;;;;;5106309;27;20015;-78
2024/04/04 01:30:14;;;;;;;4.97;1.63;;;12.30;99.90;;;;;;5106041;28;20062;-79
2024/04/04 01:32:40;;;;;;;8.27;2.35;;;12.40;99.90;;;;;;5088308;27;20412;-77
2024/04/04 01:35:06;;;;;;;4.50;1.90;;;12.40;99.90;;;;;;5088768;28;20084;-75
2024/04/04 01:37:31;;;;;;;6.10;2.00;;;12.30;99.90;;;;;;5107508;27;20104;-76
2024/04/04 01:39:57;;;;;;;9.88;1.90;;;12.40;99.90;;;;;;5107031;28;20114;-75
2024/04/04 01:42:23;;;;;;;6.78;1.75;;;12.40;99.90;;;;;;5105969;27;20054;-75
2024/04/04 01:44:49;;;;;;;6.97;2.10;;;12.40;99.90;;;;;;5107059;27;20484;-75
2024/04/04 01:47:14;;;;;;;7.53;1.55;;;12.40;99.90;;;;;;5107873;27;20113;-76
2024/04/04 01:49:40;;;;;;;6.15;2.00;;;12.40;99.90;;;;;;5107273;27;20424;-75
2024/04/04 01:52:06;;;;;;;6.20;1.58;;;12.40;99.90;;;;;;5106767;28;20038;-75
2024/04/04 01:54:32;;;;;;;4.70;1.50;;;12.40;99.90;;;;;;5088412;28;20026;-76
2024/04/04 01:56:57;;;;;;;5.63;1.50;;;12.40;99.90;;;;;;5106115;27;20023;-76
2024/04/04 01:59:23;;;;;;;8.45;2.03;;;12.30;99.90;;;;;;5106502;27;20062;-76
2024/04/04 02:01:49;;;;;;;5.28;1.77;;;12.40;99.90;;;;;;5086152;28;20086;-76
2024/04/04 02:04:14;;;;;;;4.18;1.60;;;12.40;99.90;;;;;;5105969;28;20790;-76
2024/04/04 02:06:40;;;;;;;5.10;1.90;;;12.40;99.90;;;;;;5106082;28;20031;-74
2024/04/04 02:09:07;;;;;;;8.00;2.22;;;12.40;99.90;;;;;;5088177;28;20023;-75
2024/04/04 02:11:34;;;;;;;6.57;1.70;;;12.40;99.90;;;;;;5106246;28;20955;-75
2024/04/04 02:14:00;;;;;;;5.97;1.92;;;12.40;99.90;;;;;;5106978;28;20023;-75
2024/04/04 02:16:26;;;;;;;6.82;2.17;;;12.40;99.90;;;;;;5108764;28;20384;-75
2024/04/04 02:18:51;;;;;;;9.13;2.00;;;12.40;99.90;;;;;;5132451;28;20015;-69
2024/04/04 02:21:18;;;;;;;7.15;2.08;;;12.40;99.90;;;;;;5097061;28;20092;-75
2024/04/04 02:23:44;;;;;;;5.85;2.00;;;12.30;99.90;;;;;;5129745;28;20016;-76
2024/04/04 02:26:10;;;;;;;5.15;2.17;;;12.30;99.90;;;;;;5131712;28;20053;-75
2024/04/04 02:28:35;;;;;;;7.38;2.72;;;12.30;99.90;;;;;;5131878;28;20047;-74
2024/04/04 02:31:01;;;;;;;7.57;2.38;;;12.40;99.90;;;;;;5132657;28;20035;-75
2024/04/04 02:33:28;;;;;;;5.22;2.10;;;12.40;99.90;;;;;;5113976;28;20019;-75
2024/04/04 02:35:55;;;;;;;6.18;2.45;;;12.40;99.90;;;;;;5132427;28;20131;-75
2024/04/04 02:38:22;;;;;;;4.40;1.80;;;12.50;99.90;;;;;;5132837;27;20015;-76
2024/04/04 02:40:48;;;;;;;5.60;2.00;;;12.40;99.90;;;;;;5132526;28;20031;-75
2024/04/04 02:43:15;;;;;;;7.47;2.40;;;12.40;99.90;;;;;;5132982;28;20128;-74
2024/04/04 02:45:42;;;;;;;6.88;2.10;;;12.40;99.90;;;;;;5131475;28;20016;-74
2024/04/04 02:48:08;;;;;;;5.35;1.88;;;12.50;99.90;;;;;;5132914;28;20020;-74
2024/04/04 02:50:33;;;;;;;5.93;2.38;;;12.40;99.90;;;;;;5130386;28;20027;-74
2024/04/04 02:52:59;;;;;;;7.45;2.15;;;12.40;99.90;;;;;;5132798;28;20029;-74
2024/04/04 02:55:25;;;;;;;5.72;2.10;;;12.40;99.90;;;;;;5131999;28;20034;-74
2024/04/04 02:57:50;;;;;;;6.50;2.17;;;12.40;99.90;;;;;;5132111;28;20027;-74
2024/04/04 03:00:17;;;;;;;8.10;2.33;;;12.30;99.90;;;;;;5132190;28;20035;-74
2024/04/04 03:02:43;;;;;;;6.65;2.65;;;12.40;99.90;;;;;;5114164;28;20057;-74
2024/04/04 03:05:09;;;;;;;6.38;2.42;;;12.40;99.90;;;;;;5099698;28;20808;-74
2024/04/04 03:07:35;;;;;;;4.65;2.30;;;12.40;99.90;;;;;;5131741;28;20089;-75
2024/04/04 03:10:01;;;;;;;7.07;2.58;;;12.40;99.90;;;;;;5131973;28;20467;-73
2024/04/04 03:12:26;;;;;;;6.57;2.45;;;12.50;99.90;;;;;;5132435;28;20039;-74
2024/04/04 03:14:52;;;;;;;6.38;2.05;;;12.50;99.90;;;;;;5132053;28;20019;-73
2024/04/04 03:17:18;;;;;;;6.60;2.40;;;12.40;99.90;;;;;;5132031;28;20098;-74
2024/04/04 03:19:43;;;;;;;6.18;2.28;;;12.50;99.90;;;;;;5134834;27;20167;-74
2024/04/04 03:22:09;;;;;;;5.88;2.75;;;12.50;99.90;;;;;;5135537;27;20084;-74
2024/04/04 03:24:36;;;;;;;5.65;2.60;;;12.50;99.90;;;;;;5135636;27;20432;-75
2024/04/04 03:27:02;;;;;;;11.93;2.70;;;12.50;99.90;;;;;;5135746;27;20027;-74
2024/04/04 03:29:28;;;;;;;5.05;2.08;;;12.50;99.90;;;;;;5101446;27;20023;-75
2024/04/04 03:31:53;;;;;;;6.78;2.92;;;12.50;99.90;;;;;;5107043;27;20095;-75
2024/04/04 03:34:19;;;;;;;261.88;226.93;;;12.50;99.90;;;;;;5109714;27;20058;-75
2024/04/04 03:36:47;;;;;;;8.65;5.28;;;12.50;99.90;;;;;;5109508;27;20012;-75
2024/04/04 03:39:13;;;;;;;9.95;2.97;;;12.50;99.90;;;;;;5090925;27;20023;-75
2024/04/04 03:41:39;;;;;;;9.43;2.10;;;12.60;99.90;;;;;;5109387;27;20150;-75
2024/04/04 03:44:06;;;;;;;7.50;2.95;;;12.60;99.90;;;;;;5091358;27;20072;-75
2024/04/04 03:46:32;;;;;;;6.88;2.53;;;12.60;99.90;;;;;;5090569;28;20019;-75
2024/04/04 03:48:58;;;;;;;7.97;2.90;;;12.70;99.90;;;;;;5109629;27;20098;-75
2024/04/04 03:51:25;;;;;;;5.95;2.97;;;12.60;99.90;;;;;;5108422;27;20138;-75
2024/04/04 03:53:51;;;;;;;5.47;2.45;;;12.60;99.90;;;;;;5091334;27;20030;-75
2024/04/04 03:56:16;;;;;;;11.15;2.67;;;12.60;99.90;;;;;;5109962;27;20019;-75
2024/04/04 03:58:42;;;;;;;9.27;2.72;;;12.60;99.90;;;;;;5109252;27;20034;-75
2024/04/04 04:01:08;;;;;;;7.63;3.05;;;12.70;99.90;;;;;;5108341;27;20484;-75
2024/04/04 04:03:34;;;;;;;6.82;2.65;;;12.70;99.90;;;;;;5108331;27;20031;-75
2024/04/04 04:06:01;;;;;;;5.63;2.40;;;12.70;99.90;;;;;;5109581;27;20062;-74
2024/04/04 04:08:26;;;;;;;7.63;2.47;;;12.80;99.90;;;;;;5109246;27;20535;-75
2024/04/04 04:10:52;;;;;;;8.55;2.88;;;12.70;99.90;;;;;;5108773;27;20098;-75
2024/04/04 04:13:18;;;;;;;14.45;3.38;;;12.80;99.90;;;;;;5109020;27;20020;-75
2024/04/04 04:15:55;;;;;;;6.82;3.17;;;12.70;99.90;;;;;;5109565;27;20107;-75
2024/04/04 04:18:20;;;;;;;10.90;2.85;;;12.80;99.90;;;;;;5108639;27;20024;-74
2024/04/04 04:23:54;;;;;;;12.23;3.25;;;12.80;99.90;;;;;;5038911;28;20029;-74
2024/04/04 04:26:19;;;;;;;10.35;3.00;;;12.80;99.90;;;;;;5034106;28;20032;-74
2024/04/04 04:28:45;;;;;;;15.02;3.15;;;12.90;99.90;;;;;;5067254;27;20040;-74
2024/04/04 04:31:29;;;;;;;10.68;3.47;;;12.90;99.90;;;;;;5107260;27;20107;-74
2024/04/04 04:33:57;;;;;;;12.52;3.95;;;12.90;99.90;;;;;;5106353;27;20395;-75
2024/04/04 04:36:24;;;;;;;8.25;3.03;;;12.90;99.90;;;;;;5107513;27;20145;-75
2024/04/04 04:38:51;;;;;;;15.27;3.22;;;12.90;99.90;;;;;;5089903;28;20486;-74
2024/04/04 04:41:20;;;;;;;10.98;3.55;;;12.90;99.90;;;;;;5107062;27;20036;-74
2024/04/04 04:43:47;;;;;;;16.67;4.15;;;12.90;99.90;;;;;;5108133;27;20032;-75
2024/04/04 04:46:13;;;;;;;16.05;3.80;;;13.00;99.90;;;;;;5107877;27;20015;-75
2024/04/04 04:48:39;;;;;;;11.30;3.75;;;13.00;99.90;;;;;;5107555;28;20031;-75
2024/04/04 04:51:05;;;;;;;12.73;3.83;;;13.00;99.90;;;;;;5108285;27;20097;-74
2024/04/04 04:53:31;;;;;;;15.45;4.20;;;13.10;99.90;;;;;;5107308;27;20484;-74
2024/04/04 04:55:56;;;;;;;16.45;4.38;;;13.10;99.90;;;;;;5108279;27;20076;-75
2024/04/04 04:58:22;;;;;;;19.80;3.85;;;13.00;99.90;;;;;;5107962;27;20387;-75
2024/04/04 05:00:51;;;;;;;15.07;3.75;;;13.10;99.90;;;;;;5108097;27;20031;-76
2024/04/04 05:03:17;;;;;;;14.75;4.53;;;13.10;99.90;;;;;;5107816;27;20016;-75
2024/04/04 05:05:43;;;;;;;12.90;3.95;;;13.10;99.90;;;;;;5107633;27;20124;-74
2024/04/04 05:08:09;;;;;;;21.23;4.47;;;13.10;99.90;;;;;;5107064;27;20485;-74
2024/04/04 05:10:35;;;;;;;17.30;4.22;;;13.10;99.90;;;;;;5107080;28;20023;-75
2024/04/04 05:13:00;;;;;;;18.08;4.50;;;13.10;99.90;;;;;;5107821;27;20030;-74
2024/04/04 05:15:26;;;;;;;17.23;4.10;;;13.20;99.90;;;;;;5107759;27;20024;-75
2024/04/04 05:17:52;;;;;;;16.13;4.43;;;13.20;99.90;;;;;;5108579;27;20021;-75
2024/04/04 05:20:17;;;;;;;19.70;4.75;;;13.20;99.90;;;;;;5106958;27;20032;-74
2024/04/04 05:22:43;;;;;;;11.55;3.70;;;13.20;99.90;;;;;;5107023;28;20468;-75
2024/04/04 05:25:15;;;;;;;15.40;4.90;;;13.20;99.90;;;;;;5106032;27;20046;-74
2024/04/04 05:27:41;;;;;;;15.55;4.28;;;13.20;99.90;;;;;;5107866;28;20054;-75
2024/04/04 05:30:10;;;;;;;22.73;5.00;;;13.20;99.90;;;;;;5107203;27;20011;-75
2024/04/04 05:32:39;;;;;;;17.30;4.50;;;13.20;99.90;;;;;;5088771;27;20077;-73
2024/04/04 05:35:06;;;;;;;13.90;4.13;;;13.20;99.90;;;;;;5107325;27;20459;-73
2024/04/04 05:37:32;;;;;;;20.88;4.80;;;13.20;99.90;;;;;;5107569;27;20167;-73
2024/04/04 05:39:58;;;;;;;18.92;4.25;;;13.20;99.90;;;;;;5107194;27;20429;-73
2024/04/04 05:42:27;;;;;;;21.95;4.65;;;13.20;99.90;;;;;;5087796;28;20107;-73
2024/04/04 05:44:53;;;;;;;20.98;4.45;;;13.20;99.90;;;;;;5107206;27;20020;-73
2024/04/04 05:47:20;;;;;;;15.45;4.18;;;13.30;99.90;;;;;;5107377;28;20034;-73
2024/04/04 05:49:45;;;;;;;10.90;3.03;;;13.40;99.90;;;;;;5107132;28;20032;-73
2024/04/04 05:52:11;;;;;;;15.25;4.15;;;13.40;99.90;;;;;;5107161;27;20023;-74
2024/04/04 05:54:39;;;;;;;11.65;3.20;;;13.40;99.90;;;;;;5107105;27;20027;-74
2024/04/04 05:57:05;;;;;;;13.90;4.18;;;13.40;99.90;;;;;;5106423;28;20019;-75
2024/04/04 05:59:32;;;;;;;15.40;4.78;;;13.40;99.90;;;;;;5107674;27;20038;-75
2024/04/04 06:01:59;;;;;;;13.57;4.22;;;13.40;99.90;;;;;;5106682;28;20048;-75
2024/04/04 06:04:28;;;;;;;15.77;4.78;;;13.50;99.90;;;;;;5107365;28;20023;-75
2024/04/04 06:06:54;;;;;;;14.77;5.00;;;13.40;99.90;;;;;;5107376;28;20118;-74
2024/04/04 06:09:20;;;;;;;14.60;4.72;;;13.50;99.90;;;;;;5106834;28;20102;-75
2024/04/04 06:11:45;;;;;;;12.90;4.45;;;13.50;99.90;;;;;;5106880;27;20036;-75
2024/04/04 06:14:11;;;;;;;12.35;4.57;;;13.50;99.90;;;;;;5107295;28;20020;-75
2024/04/04 06:16:38;;;;;;;17.33;4.30;;;13.50;99.90;;;;;;5107771;28;20031;-75
2024/04/04 06:19:03;;;;;;;9.23;3.90;;;13.50;99.90;;;;;;5106985;28;20036;-74
2024/04/04 06:21:29;;;;;;;11.63;3.80;;;13.60;99.90;;;;;;5106239;28;20472;-74
2024/04/04 06:23:55;;;;;;;14.27;3.92;;;13.60;99.90;;;;;;5107008;28;20094;-74
2024/04/04 06:26:21;;;;;;;11.57;3.80;;;13.60;99.90;;;;;;5087926;28;20380;-74
2024/04/04 06:28:47;;;;;;;12.32;3.15;;;13.60;99.90;;;;;;5088481;28;20078;-75
2024/04/04 06:31:13;;;;;;;13.43;3.72;;;13.60;99.90;;;;;;5107055;28;20632;-75
2024/04/04 06:33:39;;;;;;;9.85;3.65;;;13.60;99.90;;;;;;5107730;28;21438;-75
2024/04/04 06:36:04;;;;;;;10.43;3.53;;;13.60;99.90;;;;;;5107620;28;20376;-75
2024/04/04 06:38:30;;;;;;;15.68;3.65;;;13.50;99.90;;;;;;5106125;28;20053;-75
2024/04/04 06:40:56;;;;;;;12.55;3.45;;;13.60;99.90;;;;;;5087548;28;20031;-75
2024/04/04 06:43:22;;;;;;;11.75;3.35;;;13.60;99.90;;;;;;5105409;28;20024;-74
2024/04/04 06:45:47;;;;;;;11.85;3.03;;;13.50;99.90;;;;;;5106588;28;20652;-75
2024/04/04 06:48:13;;;;;;;6.78;2.58;;;13.50;99.90;;;;;;5106372;28;20682;-74
2024/04/04 06:50:39;;;;;;;13.68;3.35;;;13.60;99.90;;;;;;5087817;28;20020;-74
2024/04/04 06:53:04;;;;;;;8.07;2.83;;;13.50;99.90;;;;;;5108116;28;20074;-75
2024/04/04 06:55:31;;;;;;;14.48;3.65;;;13.50;99.90;;;;;;5111827;27;20395;-74
2024/04/04 06:57:57;;;;;;;13.70;3.47;;;13.60;99.90;;;;;;5109402;27;20011;-75
2024/04/04 07:00:22;;;;;;;13.60;3.58;;;13.60;99.90;;;;;;5111138;27;20039;-74
2024/04/04 07:02:48;;;;;;;4.18;2.80;;;13.60;99.90;;;;;;5091622;28;20028;-74
2024/04/04 07:05:14;;;;;;;10.73;2.88;;;13.60;99.90;;;;;;5111389;27;20465;-75
2024/04/04 07:07:40;;;;;;;8.60;3.17;;;13.60;99.90;;;;;;5110144;27;20490;-75
2024/04/04 07:10:06;;;;;;;12.57;3.60;;;13.70;99.90;;;;;;5110245;27;20019;-75
2024/04/04 07:12:33;;;;;;;6.28;3.03;;;13.70;99.90;;;;;;5110070;27;20027;-74
2024/04/04 07:14:59;;;;;;;8.65;2.70;;;13.60;99.90;;;;;;5110936;27;20103;-75
2024/04/04 07:17:28;;;;;;;12.73;3.30;;;13.60;99.90;;;;;;5110454;27;20463;-74
2024/04/04 07:19:54;;;;;;;10.27;2.88;;;13.70;99.90;;;;;;5109105;27;20488;-75
2024/04/04 07:22:20;;;;;;;8.90;2.85;;;13.60;99.90;;;;;;5109710;27;20022;-73
2024/04/04 07:24:46;;;;;;;7.03;2.90;;;13.70;99.90;;;;;;5109329;27;20046;-74
2024/04/04 07:27:12;;;;;;;7.68;2.47;;;13.70;99.90;;;;;;5109941;27;20487;-75
2024/04/04 07:29:38;;;;;;;7.20;2.80;;;13.70;99.90;;;;;;5091825;27;20042;-74
2024/04/04 07:32:04;;;;;;;12.10;3.30;;;13.70;99.90;;;;;;5109831;27;20024;-74
2024/04/04 07:34:29;;;;;;;7.03;3.10;;;13.70;99.90;;;;;;5110944;27;20028;-74
2024/04/04 07:36:57;;;;;;;8.00;2.90;;;13.70;99.90;;;;;;5108703;27;20098;-74
2024/04/04 07:39:22;;;;;;;7.35;3.00;;;13.70;99.90;;;;;;5109842;27;20035;-75
2024/04/04 07:41:48;;;;;;;7.95;3.33;;;13.70;99.90;;;;;;5109690;27;20031;-75
2024/04/04 07:44:14;;;;;;;13.90;3.50;;;13.80;99.90;;;;;;5107777;27;20103;-74
2024/04/04 07:46:41;;;;;;;10.07;3.03;;;13.80;99.90;;;;;;5108687;27;20054;-74
2024/04/04 07:49:08;;;;;;;6.57;3.10;;;13.80;99.90;;;;;;5109950;27;20027;-74
2024/04/04 07:51:35;;;;;;;8.57;2.88;;;13.80;99.90;;;;;;5088799;27;20020;-74
2024/04/04 07:54:00;;;;;;;5.55;2.40;;;13.90;99.90;;;;;;5104340;27;20023;-75
2024/04/04 07:56:26;;;;;;;9.18;2.53;;;13.90;99.90;;;;;;5106156;27;20031;-75
2024/04/04 07:58:52;;;;;;;6.32;2.63;;;14.00;99.90;;;;;;5107530;27;20120;-75
2024/04/04 08:01:20;;;;;;;8.95;2.80;;;14.00;99.90;;;;;;5109085;27;20035;-74
2024/04/04 08:03:48;;;;;;;7.63;2.58;;;14.00;99.90;;;;;;5109196;27;20595;-75
2024/04/04 08:06:14;;;;;;;6.90;2.60;;;13.90;99.90;;;;;;5108481;27;20016;-74
2024/04/04 08:08:41;;;;;;;6.45;2.50;;;13.80;99.90;;;;;;5108332;27;20528;-74
2024/04/04 08:11:08;;;;;;;6.88;2.60;;;13.80;99.90;;;;;;5108453;27;22555;-74
2024/04/04 08:13:34;;;;;;;6.28;1.95;;;13.90;99.90;;;;;;5091036;27;20016;-74
2024/04/04 08:16:00;;;;;;;4.97;2.20;;;13.90;99.90;;;;;;5108830;27;20024;-74
2024/04/04 08:18:26;;;;;;;6.65;2.67;;;13.90;99.90;;;;;;5108118;27;20019;-73
2024/04/04 08:20:52;;;;;;;4.22;2.10;;;14.00;99.90;;;;;;5107721;27;20363;-74
2024/04/04 08:23:17;;;;;;;5.35;1.90;;;14.00;99.90;;;;;;5108398;27;20027;-74
2024/04/04 08:25:58;;;;;;;5.80;1.80;;;14.00;99.90;;;;;;5105645;27;20102;-74
2024/04/04 08:28:24;;;;;;;1.83;1.48;;;14.00;99.90;;;;;;5107776;27;20535;-74
2024/04/04 08:30:57;;;;;;;4.95;1.38;;;14.10;99.90;;;;;;5089906;27;20070;-73
2024/04/04 08:33:26;;;;;;;;;;;14.10;99.90;;;;;;5108844;27;20032;-74
2024/04/04 08:35:52;;;;;;;7.13;1.60;;;14.20;99.90;;;;;;5107413;27;19915;-74
2024/04/04 08:38:18;;;;;;;5.05;1.60;;;14.20;99.90;;;;;;5108187;27;20038;-75
2024/04/04 08:40:45;;;;;;;2.83;1.40;;;14.10;99.90;;;;;;5107942;27;20380;-75
2024/04/04 08:43:12;;;;;;;4.55;1.40;;;14.20;99.90;;;;;;5108531;27;20027;-75
2024/04/04 08:45:57;;;;;;;3.50;1.35;;;14.20;99.90;;;;;;5108365;27;20051;-75
2024/04/04 08:48:25;;;;;;;3.60;1.30;;;14.20;99.90;;;;;;5108000;27;20027;-75
2024/04/04 08:50:51;;;;;;;3.47;1.30;;;14.20;99.90;;;;;;5090350;28;20030;-75
2024/04/04 08:53:27;;;;;;;2.58;1.30;;;14.20;99.90;;;;;;5108708;27;20028;-75
2024/04/04 08:55:54;;;;;;;4.78;1.33;;;14.10;99.90;;;;;;5106987;27;20034;-75
2024/04/04 08:58:21;;;;;;;2.88;0.90;;;14.20;99.90;;;;;;5103305;28;20529;-76
2024/04/04 09:00:47;;;;;;;4.65;1.20;;;14.20;99.90;;;;;;5106321;27;20047;-76
2024/04/04 09:03:13;;;;;;;2.55;1.10;;;14.30;99.90;;;;;;5088361;28;20016;-76
2024/04/04 09:05:52;;;;;;;1.65;1.00;;;14.20;99.90;;;;;;5107907;27;20023;-76
2024/04/04 09:08:17;;;;;;;1.25;0.85;;;14.20;99.90;;;;;;5088300;28;20023;-75
2024/04/04 09:10:50;;;;;;;1.55;0.82;;;14.20;99.90;;;;;;5107400;27;20072;-76
2024/04/04 09:13:19;;;;;;;1.88;0.93;;;14.20;99.90;;;;;;5088820;28;20043;-75
2024/04/04 09:15:44;;;;;;;3.67;0.90;;;14.20;99.90;;;;;;5106439;27;20422;-76
2024/04/04 09:18:11;;;;;;;3.10;1.30;;;14.30;99.90;;;;;;5105701;27;20084;-76
2024/04/04 09:20:40;;;;;;;4.07;1.30;;;14.30;99.90;;;;;;5106138;27;20023;-76
2024/04/04 09:23:08;;;;;;;4.47;1.05;;;14.40;99.90;;;;;;5108017;28;20069;-76
2024/04/04 09:25:34;;;;;;;2.78;1.10;;;14.40;99.90;;;;;;5107103;27;20024;-77
2024/04/04 09:28:03;;;;;;;1.77;0.60;;;14.50;99.90;;;;;;5107817;27;20107;-77
2024/04/04 09:30:32;;;;;;;3.70;0.93;;;14.60;99.90;;;;;;5106590;27;20042;-75
2024/04/04 09:32:58;;;;;;;3.25;0.90;;;14.60;99.90;;;;;;5106991;27;20022;-78
2024/04/04 09:35:24;;;;;;;1.98;1.25;;;14.50;99.90;;;;;;5089287;27;20024;-77
2024/04/04 09:37:50;;;;;;;4.05;1.08;;;14.70;99.90;;;;;;5089015;28;20026;-76
2024/04/04 09:40:17;;;;;;;2.13;0.70;;;14.60;99.90;;;;;;5106494;27;20059;-78
2024/04/04 09:42:44;;;;;;;2.20;0.60;;;14.60;99.90;;;;;;5087168;28;20054;-79
2024/04/04 09:45:12;;;;;;;2.35;0.60;;;14.60;99.90;;;;;;5106659;28;20032;-75
2024/04/04 09:47:44;;;;;;;3.45;1.25;;;14.70;99.90;;;;;;5106141;27;20030;-81
2024/04/04 09:50:12;;;;;;;4.03;0.70;;;14.70;99.90;;;;;;5105561;27;20028;-76
2024/04/04 09:52:38;;;;;;;2.03;1.00;;;14.70;99.90;;;;;;5087479;28;20031;-80
2024/04/04 09:55:16;;;;;;;3.47;0.98;;;14.70;99.90;;;;;;5106098;27;20030;-80
2024/04/04 09:57:43;;;;;;;3.97;1.00;;;14.90;99.90;;;;;;5106522;28;20463;-75
2024/04/04 10:00:18;;;;;;;4.88;1.02;;;14.90;99.90;;;;;;5106023;27;20035;-82
2024/04/04 10:02:50;;;;;;;1.20;0.60;;;15.00;99.90;;;;;;5086615;28;20024;-79
2024/04/04 10:05:18;;;;;;;1.23;0.70;;;15.20;99.90;;;;;;5105149;28;20533;-81
2024/04/04 10:07:44;;;;;;;2.25;1.23;;;15.40;99.90;;;;;;5105934;28;20106;-80
2024/04/04 10:10:14;;;;;;;3.80;1.10;;;15.60;99.90;;;;;;5106090;27;20016;-80
2024/04/04 10:12:43;;;;;;;3.13;1.30;;;15.70;99.90;;;;;;5088035;28;20686;-80
2024/04/04 10:15:09;;;;;;;2.58;0.93;;;15.50;99.90;;;;;;5104508;28;20542;-80
2024/04/04 10:17:43;;;;;;;3.13;0.77;;;15.40;99.90;;;;;;5107424;28;20080;-82
2024/04/04 10:20:10;;;;;;;1.42;0.60;;;15.50;99.90;;;;;;5089290;28;20035;-81
2024/04/04 10:22:36;;;;;;;2.38;0.77;;;15.40;99.90;;;;;;5088955;28;20376;-79
2024/04/04 10:25:03;;;;;;;1.83;1.00;;;15.40;99.90;;;;;;5106017;28;20026;-82
2024/04/04 10:27:28;;;;;;;3.55;1.00;;;15.30;99.90;;;;;;5106480;27;20035;-82
2024/04/04 10:29:55;;;;;;;5.32;0.80;;;15.40;99.90;;;;;;5092646;27;20024;-83
2024/04/04 10:32:20;;;;;;;2.70;0.73;;;15.50;99.90;;;;;;5091728;28;20022;-83
2024/04/04 10:34:46;;;;;;;4.03;0.90;;;15.50;99.90;;;;;;5111137;27;20028;-83
2024/04/04 10:37:16;;;;;;;1.67;0.75;;;15.60;99.90;;;;;;5089977;27;20098;-82
2024/04/04 10:39:42;;;;;;;3.97;1.02;;;15.70;99.90;;;;;;5092142;28;20050;-80
2024/04/04 10:42:09;;;;;;;3.13;0.75;;;15.80;99.90;;;;;;5109596;28;20062;-84
2024/04/04 10:44:35;;;;;;;2.15;0.90;;;15.70;99.90;;;;;;5109036;28;20012;-78
2024/04/04 10:47:01;;;;;;;2.10;0.80;;;15.60;99.90;;;;;;5091724;27;20094;-81
2024/04/04 10:49:28;;;;;;;2.70;0.70;;;15.70;99.90;;;;;;5091461;27;20368;-84
2024/04/04 10:51:56;;;;;;;2.63;0.80;;;15.70;99.90;;;;;;5108910;27;20031;-85
2024/04/04 10:54:23;;;;;;;3.72;0.98;;;15.70;99.90;;;;;;5109259;27;20563;-84
2024/04/04 10:56:49;;;;;;;6.15;0.93;;;15.70;99.90;;;;;;5111044;27;20039;-78
2024/04/04 10:59:18;;;;;;;4.50;0.93;;;16.00;99.90;;;;;;5109856;27;20018;-79
2024/04/04 11:01:51;;;;;;;2.15;1.00;;;16.30;99.90;;;;;;5108474;27;20418;-79
2024/04/04 11:04:21;;;;;;;7.45;1.05;;;16.50;99.90;;;;;;5109334;27;20092;-79
2024/04/04 11:06:48;;;;;;;4.78;1.00;;;16.50;99.90;;;;;;5109284;27;20027;-82
2024/04/04 11:09:19;;;;;;;5.82;1.10;;;16.60;99.90;;;;;;5091864;27;20084;-78
2024/04/04 11:11:47;;;;;;;3.22;1.23;;;16.50;99.90;;;;;;5091095;28;20103;-81
2024/04/04 11:14:13;;;;;;;3.35;0.90;;;16.80;99.90;;;;;;5109980;27;20131;-81
2024/04/04 11:16:40;;;;;;;4.75;1.13;;;17.10;99.90;;;;;;5109896;27;20023;-83
2024/04/04 11:19:06;;;;;;;3.10;1.38;;;17.10;99.90;;;;;;5091167;27;20035;-79
2024/04/04 11:21:32;;;;;;;2.85;1.00;;;17.10;99.90;;;;;;5110396;27;20054;-82
2024/04/04 11:23:58;;;;;;;8.48;1.35;;;16.90;99.90;;;;;;5090266;28;20016;-82
2024/04/04 11:26:24;;;;;;;7.57;1.60;;;16.90;99.90;;;;;;5109745;28;20372;-79
2024/04/04 11:28:50;;;;;;;4.00;1.33;;;16.70;99.90;;;;;;5108872;28;20043;-85
2024/04/04 11:31:17;;;;;;;5.60;1.30;;;16.50;99.90;;;;;;5091881;27;20533;-84
2024/04/04 11:33:43;;;;;;;5.50;1.80;;;16.40;99.90;;;;;;5110631;27;20084;-81
2024/04/04 11:36:09;;;;;;;4.88;1.33;;;16.50;99.90;;;;;;5092096;28;20031;-79
2024/04/04 11:38:35;;;;;;;4.47;1.02;;;16.50;99.90;;;;;;5090629;28;20018;-84
2024/04/04 11:41:00;;;;;;;5.32;2.08;;;16.60;99.90;;;;;;5109630;27;20114;-80
2024/04/04 11:43:26;;;;;;;6.32;1.65;;;16.60;99.90;;;;;;5092739;28;20059;-80
2024/04/04 11:45:52;;;;;;;4.95;1.55;;;16.50;99.90;;;;;;5110489;27;20058;-82
2024/04/04 11:48:18;;;;;;;6.53;1.98;;;16.50;99.90;;;;;;5108845;27;20331;-84
2024/04/04 11:50:44;;;;;;;7.75;1.75;;;16.80;99.90;;;;;;5109572;27;20031;-80
2024/04/04 11:53:11;;;;;;;4.85;1.75;;;17.00;99.90;;;;;;5109480;28;20056;-84
2024/04/04 11:55:41;;;;;;;4.72;1.35;;;17.00;99.90;;;;;;5111606;27;20024;-82
2024/04/04 11:58:07;;;;;;;8.52;1.92;;;17.00;99.90;;;;;;5109947;27;20391;-79
2024/04/04 12:00:33;;;;;;;12.27;1.75;;;17.20;99.90;;;;;;5091638;28;20066;-80
2024/04/04 12:03:03;;;;;;;7.90;2.17;;;17.30;99.90;;;;;;5092016;28;20023;-83
2024/04/04 12:05:34;;;;;;;6.15;1.77;;;17.20;99.90;;;;;;5109315;27;20199;-85
2024/04/04 12:08:00;;;;;;;11.85;2.00;;;17.20;99.90;;;;;;5109029;27;20032;-85
2024/04/04 12:10:27;;;;;;;7.90;2.38;;;17.00;99.90;;;;;;5110130;27;20027;-86
2024/04/04 12:12:53;;;;;;;8.95;2.85;;;16.90;99.90;;;;;;5091666;27;20126;-85
2024/04/04 12:15:20;;;;;;;10.25;3.28;;;17.10;99.90;;;;;;5091468;28;20011;-83
2024/04/04 12:17:47;;;;;;;8.70;2.70;;;17.20;99.90;;;;;;5091286;28;20031;-85
2024/04/04 12:20:19;;;;;;;5.68;1.50;;;17.20;99.90;;;;;;5109039;28;20464;-83
2024/04/04 12:22:48;;;;;;;9.95;2.20;;;17.00;99.90;;;;;;5110644;27;20023;-85
2024/04/04 12:25:15;;;;;;;9.15;2.72;;;16.80;99.90;;;;;;5109583;27;20106;-82
2024/04/04 12:27:44;;;;;;;10.18;2.28;;;16.60;99.90;;;;;;5110035;27;20027;-86
2024/04/04 12:30:10;;;;;;;14.00;3.63;;;16.50;99.90;;;;;;5109525;28;20038;-79
2024/04/04 12:32:36;;;;;;;6.90;2.35;;;16.50;99.90;;;;;;5091716;28;20369;-83
2024/04/04 12:35:02;;;;;;;12.07;3.00;;;16.40;99.90;;;;;;5109390;28;20107;-78
2024/04/04 12:37:28;;;;;;;13.30;3.15;;;16.30;99.90;;;;;;5108533;27;20016;-80
2024/04/04 12:39:54;;;;;;;11.50;3.05;;;16.30;99.90;;;;;;5108413;27;20032;-77
2024/04/04 12:42:20;;;;;;;10.07;3.10;;;16.10;99.90;;;;;;5108708;27;20055;-79